sensor_id;sensor_type;location;lat;lon;timestamp;P1;durP1;ratioP1;P2;durP2;ratioP2
77248;SDS011;66280;45.124;20.718;2023-04-06T00:02:59;15.77;;;9.03;;
77248;SDS011;66280;45.124;20.718;2023-04-06T00:13:00;21.77;;;9.23;;
77248;SDS011;66280;45.124;20.718;2023-04-06T00:23:01;16.43;;;9.33;;
77248;SDS011;66280;45.124;20.718;2023-04-06T00:33:01;18.20;;;9.50;;
77248;SDS011;66280;45.124;20.718;2023-04-06T00:43:02;18.97;;;10.80;;
77248;SDS011;66280;45.124;20.718;2023-04-06T00:53:03;16.43;;;9.50;;
77248;SDS011;66280;45.124;20.718;2023-04-06T01:03:04;20.47;;;9.73;;
77248;SDS011;66280;45.124;20.718;2023-04-06T01:13:12;20.63;;;9.50;;
77248;SDS011;66280;45.124;20.718;2023-04-06T01:23:21;19.20;;;10.23;;
77248;SDS011;66280;45.124;20.718;2023-04-06T01:33:22;20.83;;;10.57;;
77248;SDS011;66280;45.124;20.718;2023-04-06T01:43:49;23.90;;;12.57;;
77248;SDS011;66280;45.124;20.718;2023-04-06T01:53:49;18.67;;;10.70;;
77248;SDS011;66280;45.124;20.718;2023-04-06T02:03:52;20.77;;;11.37;;
77248;SDS011;66280;45.124;20.718;2023-04-06T02:13:53;20.15;;;11.32;;
77248;SDS011;66280;45.124;20.718;2023-04-06T02:23:58;20.77;;;11.03;;
77248;SDS011;66280;45.124;20.718;2023-04-06T02:33:59;22.27;;;11.43;;
77248;SDS011;66280;45.124;20.718;2023-04-06T02:44:01;20.08;;;10.55;;
77248;SDS011;66280;45.124;20.718;2023-04-06T02:54:14;17.37;;;10.23;;
77248;SDS011;66280;45.124;20.718;2023-04-06T03:04:15;22.83;;;11.73;;
77248;SDS011;66280;45.124;20.718;2023-04-06T03:14:16;20.33;;;10.63;;
77248;SDS011;66280;45.124;20.718;2023-04-06T03:24:16;23.07;;;13.13;;
77248;SDS011;66280;45.124;20.718;2023-04-06T03:34:17;26.20;;;13.67;;
77248;SDS011;66280;45.124;20.718;2023-04-06T03:44:18;37.17;;;17.77;;
77248;SDS011;66280;45.124;20.718;2023-04-06T03:54:18;29.73;;;14.40;;
77248;SDS011;66280;45.124;20.718;2023-04-06T04:04:19;25.90;;;12.85;;
77248;SDS011;66280;45.124;20.718;2023-04-06T04:14:20;27.07;;;13.57;;
77248;SDS011;66280;45.124;20.718;2023-04-06T04:24:21;29.13;;;13.90;;
77248;SDS011;66280;45.124;20.718;2023-04-06T04:34:21;31.67;;;14.03;;
77248;SDS011;66280;45.124;20.718;2023-04-06T04:44:24;35.97;;;16.37;;
77248;SDS011;66280;45.124;20.718;2023-04-06T04:54:26;31.60;;;15.43;;
77248;SDS011;66280;45.124;20.718;2023-04-06T05:04:27;24.13;;;12.40;;
77248;SDS011;66280;45.124;20.718;2023-04-06T05:14:31;32.77;;;14.23;;
77248;SDS011;66280;45.124;20.718;2023-04-06T05:24:34;75.27;;;25.03;;
77248;SDS011;66280;45.124;20.718;2023-04-06T05:34:35;46.22;;;20.30;;
77248;SDS011;66280;45.124;20.718;2023-04-06T05:44:38;22.40;;;11.17;;
77248;SDS011;66280;45.124;20.718;2023-04-06T05:54:44;25.43;;;11.50;;
77248;SDS011;66280;45.124;20.718;2023-04-06T06:04:45;64.65;;;24.83;;
77248;SDS011;66280;45.124;20.718;2023-04-06T06:14:46;44.73;;;18.90;;
77248;SDS011;66280;45.124;20.718;2023-04-06T06:24:48;22.80;;;11.13;;
77248;SDS011;66280;45.124;20.718;2023-04-06T06:34:51;52.13;;;20.20;;
77248;SDS011;66280;45.124;20.718;2023-04-06T06:44:53;18.20;;;9.83;;
77248;SDS011;66280;45.124;20.718;2023-04-06T06:54:54;14.18;;;9.65;;
77248;SDS011;66280;45.124;20.718;2023-04-06T07:04:55;12.53;;;8.13;;
77248;SDS011;66280;45.124;20.718;2023-04-06T07:14:56;13.00;;;9.57;;
77248;SDS011;66280;45.124;20.718;2023-04-06T07:24:56;15.60;;;10.37;;
77248;SDS011;66280;45.124;20.718;2023-04-06T07:34:57;11.63;;;8.83;;
77248;SDS011;66280;45.124;20.718;2023-04-06T07:44:58;17.40;;;10.40;;
77248;SDS011;66280;45.124;20.718;2023-04-06T07:54:59;9.60;;;7.78;;
77248;SDS011;66280;45.124;20.718;2023-04-06T08:05:00;23.60;;;16.37;;
77248;SDS011;66280;45.124;20.718;2023-04-06T08:15:01;49.47;;;27.40;;
77248;SDS011;66280;45.124;20.718;2023-04-06T08:25:02;16.67;;;12.03;;
77248;SDS011;66280;45.124;20.718;2023-04-06T08:35:02;10.67;;;8.97;;
77248;SDS011;66280;45.124;20.718;2023-04-06T08:45:03;8.83;;;7.47;;
77248;SDS011;66280;45.124;20.718;2023-04-06T08:55:04;32.47;;;19.15;;
77248;SDS011;66280;45.124;20.718;2023-04-06T09:05:05;16.77;;;10.63;;
77248;SDS011;66280;45.124;20.718;2023-04-06T09:15:06;48.87;;;24.03;;
77248;SDS011;66280;45.124;20.718;2023-04-06T09:25:22;25.35;;;19.30;;
77248;SDS011;66280;45.124;20.718;2023-04-06T09:35:23;18.23;;;14.80;;
77248;SDS011;66280;45.124;20.718;2023-04-06T09:45:24;11.20;;;10.07;;
77248;SDS011;66280;45.124;20.718;2023-04-06T09:55:30;16.35;;;10.45;;
77248;SDS011;66280;45.124;20.718;2023-04-06T10:05:37;52.07;;;28.00;;
77248;SDS011;66280;45.124;20.718;2023-04-06T10:15:42;10.63;;;9.33;;
77248;SDS011;66280;45.124;20.718;2023-04-06T10:25:56;11.73;;;9.82;;
77248;SDS011;66280;45.124;20.718;2023-04-06T10:35:58;19.07;;;13.53;;
77248;SDS011;66280;45.124;20.718;2023-04-06T10:46:10;22.53;;;15.97;;
77248;SDS011;66280;45.124;20.718;2023-04-06T10:56:12;16.17;;;12.17;;
77248;SDS011;66280;45.124;20.718;2023-04-06T11:06:23;16.80;;;13.75;;
77248;SDS011;66280;45.124;20.718;2023-04-06T11:16:30;10.93;;;9.57;;
77248;SDS011;66280;45.124;20.718;2023-04-06T11:26:31;18.10;;;13.70;;
77248;SDS011;66280;45.124;20.718;2023-04-06T11:36:31;26.80;;;16.65;;
77248;SDS011;66280;45.124;20.718;2023-04-06T11:46:32;12.33;;;9.80;;
77248;SDS011;66280;45.124;20.718;2023-04-06T11:56:33;12.03;;;8.30;;
77248;SDS011;66280;45.124;20.718;2023-04-06T12:06:33;15.90;;;9.55;;
77248;SDS011;66280;45.124;20.718;2023-04-06T12:16:34;16.35;;;12.25;;
77248;SDS011;66280;45.124;20.718;2023-04-06T12:26:35;9.57;;;8.13;;
77248;SDS011;66280;45.124;20.718;2023-04-06T12:36:36;19.10;;;10.60;;
77248;SDS011;66280;45.124;20.718;2023-04-06T12:46:37;17.00;;;10.43;;
77248;SDS011;66280;45.124;20.718;2023-04-06T12:56:37;15.63;;;9.93;;
77248;SDS011;66280;45.124;20.718;2023-04-06T13:06:38;13.97;;;8.90;;
77248;SDS011;66280;45.124;20.718;2023-04-06T13:16:39;13.83;;;10.63;;
77248;SDS011;66280;45.124;20.718;2023-04-06T13:26:39;22.33;;;12.33;;
77248;SDS011;66280;45.124;20.718;2023-04-06T13:36:40;21.07;;;11.97;;
77248;SDS011;66280;45.124;20.718;2023-04-06T13:46:40;20.30;;;13.90;;
77248;SDS011;66280;45.124;20.718;2023-04-06T13:56:41;15.43;;;10.73;;
77248;SDS011;66280;45.124;20.718;2023-04-06T14:06:42;13.65;;;10.50;;
77248;SDS011;66280;45.124;20.718;2023-04-06T14:16:45;15.67;;;10.63;;
77248;SDS011;66280;45.124;20.718;2023-04-06T14:26:45;14.77;;;9.95;;
77248;SDS011;66280;45.124;20.718;2023-04-06T14:36:46;13.63;;;9.25;;
77248;SDS011;66280;45.124;20.718;2023-04-06T14:46:47;16.40;;;10.15;;
77248;SDS011;66280;45.124;20.718;2023-04-06T14:56:47;15.40;;;9.33;;
77248;SDS011;66280;45.124;20.718;2023-04-06T15:06:48;21.63;;;14.40;;
77248;SDS011;66280;45.124;20.718;2023-04-06T15:16:49;22.40;;;13.00;;
77248;SDS011;66280;45.124;20.718;2023-04-06T15:26:49;19.40;;;9.90;;
77248;SDS011;66280;45.124;20.718;2023-04-06T15:36:50;18.77;;;10.97;;
77248;SDS011;66280;45.124;20.718;2023-04-06T15:46:51;18.10;;;10.73;;
77248;SDS011;66280;45.124;20.718;2023-04-06T15:56:51;14.70;;;10.23;;
77248;SDS011;66280;45.124;20.718;2023-04-06T16:06:52;20.87;;;13.97;;
77248;SDS011;66280;45.124;20.718;2023-04-06T16:16:53;36.23;;;20.43;;
77248;SDS011;66280;45.124;20.718;2023-04-06T16:26:54;22.93;;;14.87;;
77248;SDS011;66280;45.124;20.718;2023-04-06T16:36:56;27.65;;;13.02;;
77248;SDS011;66280;45.124;20.718;2023-04-06T16:46:57;16.20;;;9.13;;
77248;SDS011;66280;45.124;20.718;2023-04-06T16:56:57;14.53;;;8.87;;
77248;SDS011;66280;45.124;20.718;2023-04-06T17:06:58;16.90;;;12.07;;
77248;SDS011;66280;45.124;20.718;2023-04-06T17:16:59;27.43;;;15.77;;
77248;SDS011;66280;45.124;20.718;2023-04-06T17:26:59;16.93;;;10.13;;
77248;SDS011;66280;45.124;20.718;2023-04-06T17:37:00;18.23;;;11.80;;
77248;SDS011;66280;45.124;20.718;2023-04-06T17:47:00;58.30;;;30.27;;
77248;SDS011;66280;45.124;20.718;2023-04-06T17:57:01;105.93;;;37.23;;
77248;SDS011;66280;45.124;20.718;2023-04-06T18:07:04;132.93;;;56.67;;
77248;SDS011;66280;45.124;20.718;2023-04-06T18:17:04;83.13;;;38.92;;
77248;SDS011;66280;45.124;20.718;2023-04-06T18:27:05;53.43;;;25.73;;
77248;SDS011;66280;45.124;20.718;2023-04-06T18:37:06;51.97;;;24.85;;
77248;SDS011;66280;45.124;20.718;2023-04-06T18:47:06;62.20;;;24.70;;
77248;SDS011;66280;45.124;20.718;2023-04-06T18:57:07;53.97;;;27.40;;
77248;SDS011;66280;45.124;20.718;2023-04-06T19:07:07;46.30;;;25.53;;
77248;SDS011;66280;45.124;20.718;2023-04-06T19:17:08;47.47;;;25.77;;
77248;SDS011;66280;45.124;20.718;2023-04-06T19:27:08;55.63;;;31.73;;
77248;SDS011;66280;45.124;20.718;2023-04-06T19:37:09;81.33;;;36.33;;
77248;SDS011;66280;45.124;20.718;2023-04-06T19:47:10;66.50;;;31.10;;
77248;SDS011;66280;45.124;20.718;2023-04-06T19:57:11;102.90;;;45.20;;
77248;SDS011;66280;45.124;20.718;2023-04-06T20:07:12;132.90;;;56.00;;
77248;SDS011;66280;45.124;20.718;2023-04-06T20:17:13;58.77;;;30.40;;
77248;SDS011;66280;45.124;20.718;2023-04-06T20:27:13;60.10;;;27.53;;
77248;SDS011;66280;45.124;20.718;2023-04-06T20:37:14;138.50;;;49.37;;
77248;SDS011;66280;45.124;20.718;2023-04-06T20:47:15;149.17;;;48.40;;
77248;SDS011;66280;45.124;20.718;2023-04-06T20:57:16;61.20;;;27.87;;
77248;SDS011;66280;45.124;20.718;2023-04-06T21:07:17;71.95;;;34.50;;
77248;SDS011;66280;45.124;20.718;2023-04-06T21:17:18;100.57;;;39.03;;
77248;SDS011;66280;45.124;20.718;2023-04-06T21:27:18;80.95;;;32.20;;
77248;SDS011;66280;45.124;20.718;2023-04-06T21:37:19;85.20;;;35.57;;
77248;SDS011;66280;45.124;20.718;2023-04-06T21:47:20;33.33;;;16.87;;
77248;SDS011;66280;45.124;20.718;2023-04-06T21:57:20;21.13;;;13.13;;
77248;SDS011;66280;45.124;20.718;2023-04-06T22:07:21;22.40;;;12.30;;
77248;SDS011;66280;45.124;20.718;2023-04-06T22:17:22;20.30;;;11.93;;
77248;SDS011;66280;45.124;20.718;2023-04-06T22:27:22;21.37;;;12.10;;
77248;SDS011;66280;45.124;20.718;2023-04-06T22:37:23;26.00;;;14.33;;
77248;SDS011;66280;45.124;20.718;2023-04-06T22:47:24;19.13;;;10.07;;
77248;SDS011;66280;45.124;20.718;2023-04-06T22:57:24;24.80;;;12.20;;
77248;SDS011;66280;45.124;20.718;2023-04-06T23:07:25;30.00;;;13.10;;
77248;SDS011;66280;45.124;20.718;2023-04-06T23:17:25;29.25;;;14.00;;
77248;SDS011;66280;45.124;20.718;2023-04-06T23:27:26;24.33;;;12.02;;
77248;SDS011;66280;45.124;20.718;2023-04-06T23:37:27;24.70;;;13.17;;
77248;SDS011;66280;45.124;20.718;2023-04-06T23:47:27;24.10;;;12.63;;
77248;SDS011;66280;45.124;20.718;2023-04-06T23:57:28;20.13;;;11.38;;
